Gurli — SLEG — position and weather

sailwx.info

Track history (hours):
 
Tides and Currents Weather Stations Pressure Air Temp Water Temp Dewpoint Dewpoint Depression Visibility Wind Speed Wind Dir Waves Ship Positions

Gurli

Last reported at 2017-Jun-27 12:00 UTC. Time now 2017-Jun-27 12:05 UTC.
Position N 59°19' E 018°07'.

Length 21 m.

Type: Passenger vessel. MMSI: 265687640.

Date/timePositionNaut miles runAvg speedWind from/ knotsBaromVisibWave heightAir tempDewpointWater temp
2017-Jun-27 12:00N 59°19' E 018°07'1 2.7
2017-Jun-27 11:28N 59°20' E 018°05'0 0.6
2017-Jun-27 11:00N 59°20' E 018°05'0 0.8
2017-Jun-27 10:30N 59°19' E 018°06'1 1.2
2017-Jun-27 10:00N 59°19' E 018°07'2 3.4
2017-Jun-27 09:29N 59°20' E 018°09'0 0.3
2017-Jun-27 09:00N 59°20' E 018°10'2 4.1
2017-Jun-27 08:31N 59°19' E 018°06'1 1.5
2017-Jun-27 08:00N 59°20' E 018°05'1 2.9
2017-Jun-27 07:30N 59°19' E 018°07'2 3.9
2017-Jun-27 07:00N 59°20' E 018°09'1 2.3
2017-Jun-27 06:30N 59°19' E 018°09'2 4.2
2017-Jun-27 06:00N 59°20' E 018°05'2 3.2
2017-Jun-27 05:30N 59°19' E 018°08'2 3.2
2017-Jun-27 05:00N 59°21' E 018°08'2 3.6
2017-Jun-27 04:30N 59°19' E 018°09'3 5.0
2017-Jun-27 04:00N 59°20' E 018°05'0 0.5
2017-Jun-27 03:30N 59°20' E 018°05'0 0.0
2017-Jun-27 03:00N 59°20' E 018°05'0 0.0
2017-Jun-27 02:30N 59°20' E 018°05'0 0.0
2017-Jun-27 02:00N 59°20' E 018°05'0 0.0
2017-Jun-27 01:30N 59°20' E 018°05'0 0.0
2017-Jun-27 01:00N 59°20' E 018°05'0 0.0
2017-Jun-27 00:30N 59°20' E 018°05'0 0.0
2017-Jun-27 00:00N 59°20' E 018°05'0 0.0
2017-Jun-26 23:30N 59°20' E 018°05'0 0.0
2017-Jun-26 23:00N 59°20' E 018°05'0 0.0
2017-Jun-26 22:30N 59°20' E 018°05'0 0.0
2017-Jun-26 22:00N 59°20' E 018°05'0 0.0
2017-Jun-26 21:30N 59°20' E 018°05'0 0.0
2017-Jun-26 21:00N 59°20' E 018°05'0 0.0
2017-Jun-26 20:30N 59°20' E 018°05'0 0.0
2017-Jun-26 20:00N 59°20' E 018°05'0 0.0
2017-Jun-26 19:30N 59°20' E 018°05'0 0.0
2017-Jun-26 19:00N 59°20' E 018°05'2 3.3
2017-Jun-26 18:30N 59°19' E 018°08'1 1.1
2017-Jun-26 18:00N 59°19' E 018°07'1 1.2
2017-Jun-26 17:30N 59°19' E 018°06'1 3.0
2017-Jun-26 17:00N 59°19' E 018°09'2 4.2
2017-Jun-26 16:29N 59°20' E 018°05'2 3.6
2017-Jun-26 16:00N 59°19' E 018°07'2 3.6
2017-Jun-26 15:30N 59°21' E 018°09'1 3.0
2017-Jun-26 15:00N 59°19' E 018°09'2 4.3
2017-Jun-26 14:30N 59°20' E 018°05'0 0.0
2017-Jun-26 13:31N 59°20' E 018°05'2 4.6
2017-Jun-26 12:59N 59°19' E 018°09'1 2.8
2017-Jun-26 12:30N 59°21' E 018°09'2 3.6
2017-Jun-26 12:00N 59°19' E 018°07'2 3.5
2017-Jun-26 11:30N 59°20' E 018°05'0 0.6
2017-Jun-26 11:00N 59°20' E 018°05'1 1.1
2017-Jun-26 10:30N 59°19' E 018°06'0 0.1
2017-Jun-26 10:00N 59°19' E 018°06'2 3.9
2017-Jun-26 09:30N 59°20' E 018°09'0 0.4
2017-Jun-26 09:00N 59°20' E 018°10'2 4.1
2017-Jun-26 08:30N 59°19' E 018°06'1 1.7
2017-Jun-26 07:59N 59°20' E 018°05'1 3.0
2017-Jun-26 07:30N 59°19' E 018°07'2 3.9
2017-Jun-26 07:00N 59°20' E 018°09'1 2.2
2017-Jun-26 06:30N 59°19' E 018°09'2 3.9
2017-Jun-26 06:00N 59°20' E 018°05'1 2.5
2017-Jun-26 05:30N 59°19' E 018°08'2 3.3
2017-Jun-26 05:00N 59°21' E 018°08'2 3.5
2017-Jun-26 04:30N 59°19' E 018°09'2 5.0
2017-Jun-26 04:00N 59°20' E 018°05'0 0.5
2017-Jun-26 03:30N 59°20' E 018°05'0 0.0
2017-Jun-26 03:00N 59°20' E 018°05'0 0.0
2017-Jun-26 02:30N 59°20' E 018°05'0 0.0
2017-Jun-26 02:00N 59°20' E 018°05'0 0.0
2017-Jun-26 01:30N 59°20' E 018°05'0 0.0
2017-Jun-26 01:00N 59°20' E 018°05'0 0.0
2017-Jun-26 00:30N 59°20' E 018°05'0 0.0
2017-Jun-26 00:00N 59°20' E 018°05'0 0.0
2017-Jun-25 23:30N 59°20' E 018°05'0 0.0
2017-Jun-25 23:00N 59°20' E 018°05'0 0.0
2017-Jun-25 22:30N 59°20' E 018°05'0 0.0
2017-Jun-25 22:00N 59°20' E 018°05'0 0.0
2017-Jun-25 21:30N 59°20' E 018°05'0 0.0
2017-Jun-25 21:00N 59°20' E 018°05'0 0.0
2017-Jun-25 20:28N 59°20' E 018°05'0 0.0
2017-Jun-25 20:00N 59°20' E 018°05'0 0.0
2017-Jun-25 19:30N 59°20' E 018°05'0 0.0
2017-Jun-25 18:57N 59°20' E 018°05'0 0.0
2017-Jun-25 18:22N 59°20' E 018°05'0 0.0
2017-Jun-25 17:58N 59°20' E 018°05'0 0.0
2017-Jun-25 17:12N 59°20' E 018°05'0 0.0
2017-Jun-25 16:57N 59°20' E 018°05'0 0.0
2017-Jun-25 16:28N 59°20' E 018°05'1 2.7
2017-Jun-25 15:58N 59°19' E 018°07'2 3.6
2017-Jun-25 15:29N 59°21' E 018°09'2 3.3
2017-Jun-25 15:00N 59°19' E 018°08'1 0.6
2017-Jun-25 14:01N 59°19' E 018°07'2 3.4
2017-Jun-25 13:29N 59°21' E 018°09'2 3.4
2017-Jun-25 13:00N 59°19' E 018°08'2 4.0
2017-Jun-25 12:30N 59°20' E 018°05'2 4.0
2017-Jun-25 12:00N 59°19' E 018°08'2 3.8
2017-Jun-25 11:29N 59°20' E 018°05'0 0.0
2017-Jun-25 10:59N 59°20' E 018°05'2 3.3
2017-Jun-25 10:30N 59°19' E 018°07'2 3.3
2017-Jun-25 10:00N 59°20' E 018°09'2 3.4
2017-Jun-25 09:30N 59°19' E 018°07'1 2.0
2017-Jun-25 09:00N 59°19' E 018°06'2 3.6
2017-Jun-25 08:30N 59°19' E 018°09'2 3.5
2017-Jun-25 08:00N 59°19' E 018°06'1 1.3
2017-Jun-25 07:28N 59°20' E 018°05'0 0.0
2017-Jun-25 06:58N 59°20' E 018°05'0 0.0
2017-Jun-25 06:13N 59°20' E 018°05'0 0.0
2017-Jun-25 05:55N 59°20' E 018°05'0 0.0
2017-Jun-25 05:25N 59°20' E 018°05'0 0.0
2017-Jun-25 04:55N 59°20' E 018°05'0 0.0
2017-Jun-25 04:25N 59°20' E 018°05'0 0.0
2017-Jun-25 03:55N 59°20' E 018°05'0 0.0
2017-Jun-25 03:25N 59°20' E 018°05'0 0.0
2017-Jun-25 02:50N 59°20' E 018°05'0 0.0
2017-Jun-25 02:29N 59°20' E 018°05'0 0.0
2017-Jun-25 01:59N 59°20' E 018°05'0 0.0
2017-Jun-25 01:29N 59°20' E 018°05'0 0.0
2017-Jun-25 00:59N 59°20' E 018°05'0 0.0
2017-Jun-25 00:29N 59°20' E 018°05'0 0.0
2017-Jun-24 23:59N 59°20' E 018°05'0 0.0
2017-Jun-24 23:29N 59°20' E 018°05'0 0.0
2017-Jun-24 22:59N 59°20' E 018°05'0 0.0
2017-Jun-24 22:29N 59°20' E 018°05'0 0.0
2017-Jun-24 21:59N 59°20' E 018°05'0 0.0
2017-Jun-24 21:29N 59°20' E 018°05'0 0.0
2017-Jun-24 20:59N 59°20' E 018°05'0 0.0
2017-Jun-24 20:29N 59°20' E 018°05'0 0.0
2017-Jun-24 19:59N 59°20' E 018°05'0 0.0
2017-Jun-24 19:29N 59°20' E 018°05'0 0.0
2017-Jun-24 18:59N 59°20' E 018°05'0 0.0
2017-Jun-24 18:29N 59°20' E 018°05'0 0.0
2017-Jun-24 17:56N 59°20' E 018°05'0 0.0
2017-Jun-24 17:29N 59°20' E 018°05'0 0.0
2017-Jun-24 16:59N 59°20' E 018°05'0 0.0
2017-Jun-24 16:29N 59°20' E 018°05'1 1.9
2017-Jun-24 16:00N 59°19' E 018°06'2 4.0
2017-Jun-24 15:29N 59°21' E 018°09'2 3.2
2017-Jun-24 15:01N 59°19' E 018°08'1 0.7
2017-Jun-24 14:00N 59°19' E 018°07'2 3.6
2017-Jun-24 13:30N 59°21' E 018°09'1 3.0
2017-Jun-24 13:00N 59°19' E 018°08'2 4.1
2017-Jun-24 12:31N 59°20' E 018°05'2 3.8
2017-Jun-24 11:59N 59°19' E 018°08'2 3.9
2017-Jun-24 11:28N 59°20' E 018°05'0 0.0
2017-Jun-24 10:50N 59°20' E 018°05'1 3.4
2017-Jun-24 10:30N 59°19' E 018°06'2 3.9
2017-Jun-24 09:59N 59°21' E 018°09'2 3.7
2017-Jun-24 09:30N 59°19' E 018°07'1 2.5
2017-Jun-24 08:59N 59°20' E 018°05'2 4.0
2017-Jun-24 08:29N 59°19' E 018°09'2 3.7
2017-Jun-24 08:00N 59°19' E 018°06'1 1.2
2017-Jun-24 07:28N 59°20' E 018°05'0 0.0
2017-Jun-24 06:58N 59°20' E 018°05'0 0.0
2017-Jun-24 06:28N 59°20' E 018°05'0 0.0
2017-Jun-24 05:52N 59°20' E 018°05'0 0.0
2017-Jun-24 05:16N 59°20' E 018°05'0 0.0
2017-Jun-24 04:58N 59°20' E 018°05'0 0.0
2017-Jun-24 04:28N 59°20' E 018°05'0 0.0
2017-Jun-24 03:58N 59°20' E 018°05'0 0.0
2017-Jun-24 03:28N 59°20' E 018°05'0 0.0
2017-Jun-24 02:58N 59°20' E 018°05'0 0.0
2017-Jun-24 02:28N 59°20' E 018°05'0 0.0
2017-Jun-24 01:58N 59°20' E 018°05'0 0.0
2017-Jun-24 01:28N 59°20' E 018°05'0 0.0
2017-Jun-24 00:58N 59°20' E 018°05'0 0.0
2017-Jun-24 00:22N 59°20' E 018°05'0 0.0
2017-Jun-23 23:58N 59°20' E 018°05'0 0.0
2017-Jun-23 23:28N 59°20' E 018°05'0 0.0
2017-Jun-23 22:58N 59°20' E 018°05'0 0.0
2017-Jun-23 22:28N 59°20' E 018°05'0 0.0
2017-Jun-23 21:58N 59°20' E 018°05'0 0.0
2017-Jun-23 21:22N 59°20' E 018°05'0 0.0
2017-Jun-23 20:58N 59°20' E 018°05'0 0.0
2017-Jun-23 20:28N 59°20' E 018°05'0 0.0
2017-Jun-23 19:58N 59°20' E 018°05'0 0.0
2017-Jun-23 19:22N 59°20' E 018°05'0 0.0
2017-Jun-23 18:58N 59°20' E 018°05'0 0.0
2017-Jun-23 18:28N 59°20' E 018°05'0 0.0
2017-Jun-23 17:58N 59°20' E 018°05'0 0.0
2017-Jun-23 17:28N 59°20' E 018°05'0 0.0
2017-Jun-23 16:52N 59°20' E 018°05'0 0.0
2017-Jun-23 16:28N 59°20' E 018°05'1 2.0
2017-Jun-23 16:00N 59°19' E 018°06'2 3.9
2017-Jun-23 15:28N 59°21' E 018°09'2 3.3
2017-Jun-23 15:00N 59°19' E 018°08'0 0.4
2017-Jun-23 13:59N 59°19' E 018°07'2 3.1
2017-Jun-23 13:28N 59°21' E 018°09'2 3.4
2017-Jun-23 13:00N 59°19' E 018°08'2 4.0
2017-Jun-23 12:30N 59°20' E 018°05'2 4.0
2017-Jun-23 11:59N 59°19' E 018°08'2 4.1
2017-Jun-23 11:31N 59°20' E 018°05'0 0.0
2017-Jun-23 10:55N 59°20' E 018°05'1 3.4
2017-Jun-23 10:30N 59°19' E 018°07'2 3.8
2017-Jun-23 10:00N 59°21' E 018°09'2 3.3
2017-Jun-23 09:30N 59°19' E 018°08'2 3.2
2017-Jun-23 09:00N 59°20' E 018°05'2 4.5
2017-Jun-23 08:30N 59°19' E 018°09'2 3.5
2017-Jun-23 08:00N 59°19' E 018°06'1 1.4
2017-Jun-23 07:28N 59°20' E 018°05'0 0.0
2017-Jun-23 06:58N 59°20' E 018°05'0 0.0
2017-Jun-23 06:22N 59°20' E 018°05'0 0.0
2017-Jun-23 05:58N 59°20' E 018°05'0 0.0
2017-Jun-23 05:28N 59°20' E 018°05'0 0.0
2017-Jun-23 04:58N 59°20' E 018°05'0 0.0
2017-Jun-23 04:28N 59°20' E 018°05'0 0.0
2017-Jun-23 03:58N 59°20' E 018°05'0 0.0
2017-Jun-23 03:28N 59°20' E 018°05'0 0.0
2017-Jun-23 02:58N 59°20' E 018°05'0 0.0
2017-Jun-23 02:28N 59°20' E 018°05'0 0.0
2017-Jun-23 01:58N 59°20' E 018°05'0 0.0
2017-Jun-23 01:28N 59°20' E 018°05'0 0.0
2017-Jun-23 00:58N 59°20' E 018°05'0 0.0
2017-Jun-23 00:28N 59°20' E 018°05'0 0.0
2017-Jun-22 23:58N 59°20' E 018°05'0 0.0
2017-Jun-22 23:28N 59°20' E 018°05'0 0.0
2017-Jun-22 22:58N 59°20' E 018°05'0 0.0
2017-Jun-22 22:28N 59°20' E 018°05'0 0.0
2017-Jun-22 21:58N 59°20' E 018°05'0 0.0
2017-Jun-22 21:28N 59°20' E 018°05'0 0.0
2017-Jun-22 20:58N 59°20' E 018°05'0 0.0
2017-Jun-22 20:22N 59°20' E 018°05'0 0.0
2017-Jun-22 19:58N 59°20' E 018°05'0 0.0
2017-Jun-22 19:30N 59°20' E 018°05'2 3.9
2017-Jun-22 19:00N 59°19' E 018°08'1 2.8
2017-Jun-22 18:29N 59°19' E 018°06'0 0.0
2017-Jun-22 18:00N 59°19' E 018°06'1 2.8
2017-Jun-22 17:30N 59°19' E 018°08'2 3.7
2017-Jun-22 16:56N 59°20' E 018°05'2 4.0
2017-Jun-22 16:30N 59°19' E 018°07'2 3.5
2017-Jun-22 16:00N 59°21' E 018°08'2 3.1
2017-Jun-22 15:29N 59°19' E 018°08'2 3.9
2017-Jun-22 14:58N 59°20' E 018°05'2 3.8
2017-Jun-22 14:30N 59°19' E 018°07'1 0.7
2017-Jun-22 13:30N 59°19' E 018°09'2 4.2
2017-Jun-22 12:58N 59°20' E 018°05'0 0.5
2017-Jun-22 12:30N 59°20' E 018°05'0 0.0
2017-Jun-22 11:54N 59°20' E 018°05'0 0.0
2017-Jun-22 11:29N 59°20' E 018°05'1 2.9
2017-Jun-22 11:01N 59°19' E 018°07'0 0.3
2017-Jun-22 10:31N 59°19' E 018°07'1 1.9
2017-Jun-22 10:00N 59°19' E 018°06'2 3.6
2017-Jun-22 09:29N 59°19' E 018°09'1 2.9
2017-Jun-22 09:00N 59°21' E 018°09'2 3.4
2017-Jun-22 08:29N 59°19' E 018°07'2 3.1
2017-Jun-22 07:58N 59°20' E 018°05'2 3.9
2017-Jun-22 07:27N 59°19' E 018°08'2 3.6
2017-Jun-22 06:59N 59°21' E 018°08'2 3.5
2017-Jun-22 06:30N 59°19' E 018°09'3 5.1
2017-Jun-22 06:00N 59°20' E 018°05'3 4.9
2017-Jun-22 05:29N 59°19' E 018°09'1 3.0
2017-Jun-22 05:00N 59°21' E 018°09'2 3.6
2017-Jun-22 04:30N 59°19' E 018°07'2 2.7
2017-Jun-22 03:56N 59°20' E 018°05'0 0.0
2017-Jun-22 03:20N 59°20' E 018°05'0 0.0
2017-Jun-22 02:56N 59°20' E 018°05'0 0.0
2017-Jun-22 02:26N 59°20' E 018°05'0 0.0
2017-Jun-22 01:56N 59°20' E 018°05'0 0.0
2017-Jun-22 01:26N 59°20' E 018°05'0 0.0
2017-Jun-22 00:59N 59°20' E 018°05'0 0.0
2017-Jun-22 00:26N 59°20' E 018°05'0 0.0
2017-Jun-21 23:59N 59°20' E 018°05'0 0.0
2017-Jun-21 23:29N 59°20' E 018°05'0 0.0
2017-Jun-21 22:56N 59°20' E 018°05'0 0.0
2017-Jun-21 22:29N 59°20' E 018°05'0 0.0
2017-Jun-21 21:59N 59°20' E 018°05'0 0.0
2017-Jun-21 21:29N 59°20' E 018°05'0 0.0
2017-Jun-21 20:59N 59°20' E 018°05'0 0.0
2017-Jun-21 20:29N 59°20' E 018°05'0 0.0
2017-Jun-21 19:56N 59°20' E 018°05'0 0.2
2017-Jun-21 19:30N 59°20' E 018°05'2 3.8
2017-Jun-21 18:59N 59°19' E 018°08'1 3.0
2017-Jun-21 18:30N 59°19' E 018°06'0 0.3
2017-Jun-21 18:01N 59°19' E 018°06'1 2.7
2017-Jun-21 17:30N 59°19' E 018°08'2 3.7
2017-Jun-21 16:56N 59°20' E 018°05'2 4.0
2017-Jun-21 16:30N 59°19' E 018°07'2 3.4
2017-Jun-21 16:00N 59°21' E 018°08'2 3.1
2017-Jun-21 15:30N 59°19' E 018°09'2 4.2
2017-Jun-21 15:00N 59°20' E 018°05'2 3.4
2017-Jun-21 14:29N 59°19' E 018°07'0 0.4
2017-Jun-21 13:30N 59°19' E 018°08'2 3.5
2017-Jun-21 12:55N 59°20' E 018°05'0 0.5
2017-Jun-21 12:27N 59°20' E 018°05'0 0.0
2017-Jun-21 11:57N 59°20' E 018°05'0 0.0
2017-Jun-21 11:29N 59°20' E 018°05'2 3.2
2017-Jun-21 11:00N 59°19' E 018°07'0 0.1
2017-Jun-21 10:30N 59°19' E 018°07'1 2.3
2017-Jun-21 10:00N 59°20' E 018°05'2 3.6
2017-Jun-21 09:29N 59°19' E 018°09'1 2.8
2017-Jun-21 09:00N 59°21' E 018°09'2 3.5
2017-Jun-21 08:30N 59°19' E 018°07'2 3.3
2017-Jun-21 08:00N 59°20' E 018°05'2 3.2
2017-Jun-21 07:28N 59°19' E 018°07'2 3.7
2017-Jun-21 07:00N 59°21' E 018°09'2 3.1
2017-Jun-21 06:29N 59°19' E 018°10'3 5.2
2017-Jun-21 05:58N 59°20' E 018°05'2 4.7
2017-Jun-21 05:30N 59°19' E 018°09'1 3.0
2017-Jun-21 05:00N 59°21' E 018°09'2 3.3
2017-Jun-21 04:30N 59°19' E 018°08'2 3.0
2017-Jun-21 03:56N 59°20' E 018°05'0 0.0
2017-Jun-21 03:26N 59°20' E 018°05'0 0.0
2017-Jun-21 02:56N 59°20' E 018°05'0 0.0
2017-Jun-21 02:29N 59°20' E 018°05'0 0.0
2017-Jun-21 01:56N 59°20' E 018°05'0 0.0
2017-Jun-21 01:29N 59°20' E 018°05'0 0.0
2017-Jun-21 00:59N 59°20' E 018°05'0 0.0
2017-Jun-21 00:29N 59°20' E 018°05'0 0.0
2017-Jun-20 23:59N 59°20' E 018°05'0 0.0
2017-Jun-20 23:29N 59°20' E 018°05'0 0.0
2017-Jun-20 22:59N 59°20' E 018°05'0 0.0
2017-Jun-20 22:29N 59°20' E 018°05'0 0.0
2017-Jun-20 21:59N 59°20' E 018°05'0 0.0
2017-Jun-20 21:29N 59°20' E 018°05'0 0.0
2017-Jun-20 20:59N 59°20' E 018°05'0 0.0
2017-Jun-20 20:29N 59°20' E 018°05'0 0.0
2017-Jun-20 19:59N 59°20' E 018°05'0 0.2
2017-Jun-20 19:30N 59°20' E 018°05'2 3.7
2017-Jun-20 19:00N 59°19' E 018°08'1 2.6
2017-Jun-20 18:30N 59°19' E 018°06'0 0.2
2017-Jun-20 17:59N 59°19' E 018°06'2 3.5
2017-Jun-20 17:30N 59°19' E 018°09'2 4.7
2017-Jun-20 17:00N 59°20' E 018°05'2 3.6
2017-Jun-20 16:30N 59°19' E 018°08'2 3.3
2017-Jun-20 16:00N 59°21' E 018°08'2 3.3
2017-Jun-20 15:30N 59°19' E 018°09'2 4.7
2017-Jun-20 15:00N 59°20' E 018°05'2 2.2
2017-Jun-20 14:00N 59°21' E 018°09'2 3.0
2017-Jun-20 13:30N 59°19' E 018°09'2 4.4
2017-Jun-20 13:00N 59°20' E 018°05'0 0.5
2017-Jun-20 12:28N 59°20' E 018°05'0 0.0
2017-Jun-20 11:58N 59°20' E 018°05'0 0.5
2017-Jun-20 11:30N 59°20' E 018°05'2 4.1
2017-Jun-20 11:00N 59°19' E 018°08'1 1.7
2017-Jun-20 10:30N 59°19' E 018°07'1 1.4
2017-Jun-20 10:01N 59°19' E 018°06'2 3.6
2017-Jun-20 09:30N 59°19' E 018°09'1 2.7
2017-Jun-20 09:00N 59°21' E 018°09'2 3.5
2017-Jun-20 08:30N 59°19' E 018°07'2 3.5
2017-Jun-20 08:00N 59°20' E 018°05'2 3.5
2017-Jun-20 07:30N 59°19' E 018°08'2 3.4
2017-Jun-20 06:59N 59°21' E 018°08'2 3.6
2017-Jun-20 06:30N 59°19' E 018°09'3 4.9
2017-Jun-20 05:58N 59°20' E 018°05'2 4.6
2017-Jun-20 05:30N 59°19' E 018°09'2 3.0
2017-Jun-20 05:00N 59°21' E 018°09'2 3.4
2017-Jun-20 04:30N 59°19' E 018°08'2 2.8
2017-Jun-20 03:57N 59°20' E 018°05'0 0.0
2017-Jun-20 03:30N 59°20' E 018°05'0 0.0
2017-Jun-20 03:00N 59°20' E 018°05'0 0.0
2017-Jun-20 02:30N 59°20' E 018°05'0 0.0
2017-Jun-20 02:00N 59°20' E 018°05'0 0.0
2017-Jun-20 01:30N 59°20' E 018°05'0 0.0
2017-Jun-20 01:00N 59°20' E 018°05'0 0.0
2017-Jun-20 00:30N 59°20' E 018°05'0 0.0
2017-Jun-20 00:00N 59°20' E 018°05'0 0.0
2017-Jun-19 23:30N 59°20' E 018°05'0 0.0
2017-Jun-19 23:00N 59°20' E 018°05'0 0.0
2017-Jun-19 22:30N 59°20' E 018°05'0 0.0
2017-Jun-19 22:00N 59°20' E 018°05'0 0.0
2017-Jun-19 21:30N 59°20' E 018°05'0 0.0
2017-Jun-19 21:00N 59°20' E 018°05'0 0.0
2017-Jun-19 20:30N 59°20' E 018°05'0 0.0
2017-Jun-19 20:00N 59°20' E 018°05'0 0.4
2017-Jun-19 19:30N 59°20' E 018°05'2 4.0
2017-Jun-19 19:00N 59°19' E 018°08'1 2.8
2017-Jun-19 18:30N 59°19' E 018°06'1 1.5
2017-Jun-19 18:00N 59°19' E 018°07'1 1.8
2017-Jun-19 17:30N 59°19' E 018°08'2 4.0
2017-Jun-19 17:00N 59°20' E 018°05'2 4.1
2017-Jun-19 16:30N 59°19' E 018°08'2 3.4
2017-Jun-19 16:00N 59°21' E 018°08'2 3.4
2017-Jun-19 15:30N 59°19' E 018°08'2 3.8
2017-Jun-19 14:59N 59°20' E 018°05'2 2.4
2017-Jun-19 14:00N 59°21' E 018°09'2 3.0
2017-Jun-19 13:30N 59°19' E 018°08'2 4.0
2017-Jun-19 12:59N 59°20' E 018°05'0 0.5
2017-Jun-19 12:28N 59°20' E 018°05'0 0.0
2017-Jun-19 11:58N 59°20' E 018°05'0 0.0
2017-Jun-19 11:28N 59°20' E 018°05'1 2.7
2017-Jun-19 11:00N 59°19' E 018°07'0 0.7
2017-Jun-19 10:30N 59°19' E 018°07'1 2.4
2017-Jun-19 10:00N 59°20' E 018°05'2 3.9
2017-Jun-19 09:30N 59°19' E 018°09'1 2.8
2017-Jun-19 09:00N 59°21' E 018°09'2 3.6
2017-Jun-19 08:30N 59°19' E 018°07'2 3.4
2017-Jun-19 07:59N 59°20' E 018°05'2 3.6
2017-Jun-19 07:30N 59°19' E 018°07'2 3.6
2017-Jun-19 07:00N 59°21' E 018°08'2 3.4
2017-Jun-19 06:30N 59°19' E 018°09'3 4.9
2017-Jun-19 06:00N 59°20' E 018°05'2 4.6
2017-Jun-19 05:31N 59°19' E 018°09'1 3.0
2017-Jun-19 05:01N 59°21' E 018°09'2 3.1
2017-Jun-19 04:30N 59°19' E 018°08'2 3.7
2017-Jun-19 04:01N 59°20' E 018°05'0 0.0
2017-Jun-19 03:30N 59°20' E 018°05'0 0.0
2017-Jun-19 03:01N 59°20' E 018°05'0 0.0
2017-Jun-19 02:31N 59°20' E 018°05'0 0.0
2017-Jun-19 02:01N 59°20' E 018°05'0 0.0
2017-Jun-19 01:31N 59°20' E 018°05'0 0.0
2017-Jun-19 01:01N 59°20' E 018°05'0 0.0
2017-Jun-19 00:28N 59°20' E 018°05'0 0.0
2017-Jun-19 00:01N 59°20' E 018°05'0 0.0
2017-Jun-18 23:31N 59°20' E 018°05'0 0.0
2017-Jun-18 23:01N 59°20' E 018°05'0 0.0
2017-Jun-18 22:31N 59°20' E 018°05'0 0.0
2017-Jun-18 22:01N 59°20' E 018°05'0 0.0
2017-Jun-18 21:31N 59°20' E 018°05'0 0.0
2017-Jun-18 20:58N 59°20' E 018°05'0 0.0
2017-Jun-18 20:31N 59°20' E 018°05'0 0.0
2017-Jun-18 20:01N 59°20' E 018°05'0 0.0
2017-Jun-18 19:31N 59°20' E 018°05'0 0.0
2017-Jun-18 18:58N 59°20' E 018°05'0 0.0
2017-Jun-18 18:28N 59°20' E 018°05'0 0.0
2017-Jun-18 17:58N 59°20' E 018°05'0 0.0
2017-Jun-18 17:28N 59°20' E 018°05'0 0.0
2017-Jun-18 16:58N 59°20' E 018°05'0 0.0
2017-Jun-18 16:28N 59°20' E 018°05'0 0.0
2017-Jun-18 15:58N 59°20' E 018°05'0 0.0
2017-Jun-18 15:28N 59°20' E 018°05'1 3.0
2017-Jun-18 15:00N 59°19' E 018°07'1 0.5
2017-Jun-18 14:00N 59°19' E 018°08'2 4.1
2017-Jun-18 13:30N 59°20' E 018°05'2 4.0
2017-Jun-18 13:00N 59°19' E 018°08'2 3.7
2017-Jun-18 12:28N 59°20' E 018°05'2 3.8
2017-Jun-18 12:00N 59°19' E 018°07'2 3.5
2017-Jun-18 11:29N 59°21' E 018°09'2 3.5
2017-Jun-18 10:58N 59°19' E 018°07'2 3.2
2017-Jun-18 10:30N 59°20' E 018°05'0 0.1
2017-Jun-18 10:00N 59°20' E 018°05'2 2.9
2017-Jun-18 09:28N 59°19' E 018°08'1 2.8
2017-Jun-18 09:00N 59°20' E 018°05'1 2.2
2017-Jun-18 08:30N 59°19' E 018°07'2 3.2
2017-Jun-18 07:57N 59°21' E 018°09'2 3.5
2017-Jun-18 07:30N 59°19' E 018°08'2 4.1
2017-Jun-18 07:00N 59°20' E 018°05'0 0.4
2017-Jun-18 06:24N 59°20' E 018°05'0 0.0
2017-Jun-18 06:01N 59°20' E 018°05'0 0.0
2017-Jun-18 05:24N 59°20' E 018°05'0 0.0
2017-Jun-18 04:55N 59°20' E 018°05'0 0.0
2017-Jun-18 04:31N 59°20' E 018°05'0 0.0
2017-Jun-18 04:00N 59°20' E 018°05'0 0.0
2017-Jun-18 03:30N 59°20' E 018°05'0 0.0
2017-Jun-18 03:01N 59°20' E 018°05'0 0.0
2017-Jun-18 02:27N 59°20' E 018°05'0 0.0
2017-Jun-18 02:00N 59°20' E 018°05'0 0.0
2017-Jun-18 01:31N 59°20' E 018°05'0 0.0
2017-Jun-18 00:57N 59°20' E 018°05'0 0.0
2017-Jun-18 00:30N 59°20' E 018°05'0 0.0
2017-Jun-17 23:55N 59°20' E 018°05'0 0.0
2017-Jun-17 23:30N 59°20' E 018°05'0 0.0
2017-Jun-17 23:01N 59°20' E 018°05'0 0.0
2017-Jun-17 22:31N 59°20' E 018°05'0 0.0
2017-Jun-17 22:01N 59°20' E 018°05'0 0.0
2017-Jun-17 21:27N 59°20' E 018°05'0 0.0
2017-Jun-17 20:57N 59°20' E 018°05'0 0.0
2017-Jun-17 20:25N 59°20' E 018°05'0 0.0
2017-Jun-17 19:55N 59°20' E 018°05'0 0.0
2017-Jun-17 19:27N 59°20' E 018°05'0 0.0
2017-Jun-17 18:59N 59°20' E 018°05'0 0.0
2017-Jun-17 18:27N 59°20' E 018°05'0 0.0
2017-Jun-17 17:57N 59°20' E 018°05'0 0.0
2017-Jun-17 17:27N 59°20' E 018°05'0 0.0
2017-Jun-17 16:57N 59°20' E 018°05'0 0.0
2017-Jun-17 16:27N 59°20' E 018°05'0 0.0
2017-Jun-17 15:57N 59°20' E 018°05'0 0.0
2017-Jun-17 15:27N 59°20' E 018°05'1 3.2
2017-Jun-17 15:00N 59°19' E 018°07'0 0.4
2017-Jun-17 14:00N 59°19' E 018°08'2 3.9
2017-Jun-17 13:29N 59°20' E 018°05'2 4.2
2017-Jun-17 13:00N 59°19' E 018°08'2 4.1
2017-Jun-17 12:30N 59°20' E 018°05'  
Track history (hours):
 
Tides and Currents Weather Stations Pressure Air Temp Water Temp Dewpoint Dewpoint Depression Visibility Wind Speed Wind Dir Waves Ship Positions

Gurli

Last reported at 2017-Jun-27 12:00 UTC. Time now 2017-Jun-27 12:05 UTC.
Position N 59°19' E 018°07'.

Length 21 m.

Type: Passenger vessel. MMSI: 265687640.

Date/timePositionNaut miles runAvg speedWind from/ knotsBaromVisibWave heightAir tempDewpointWater temp
2017-Jun-27 12:00N 59°19' E 018°07'1 2.7
2017-Jun-27 11:28N 59°20' E 018°05'0 0.6
2017-Jun-27 11:00N 59°20' E 018°05'0 0.8
2017-Jun-27 10:30N 59°19' E 018°06'1 1.2
2017-Jun-27 10:00N 59°19' E 018°07'2 3.4
2017-Jun-27 09:29N 59°20' E 018°09'0 0.3
2017-Jun-27 09:00N 59°20' E 018°10'2 4.1
2017-Jun-27 08:31N 59°19' E 018°06'1 1.5
2017-Jun-27 08:00N 59°20' E 018°05'1 2.9
2017-Jun-27 07:30N 59°19' E 018°07'2 3.9
2017-Jun-27 07:00N 59°20' E 018°09'1 2.3
2017-Jun-27 06:30N 59°19' E 018°09'2 4.2
2017-Jun-27 06:00N 59°20' E 018°05'2 3.2
2017-Jun-27 05:30N 59°19' E 018°08'2 3.2
2017-Jun-27 05:00N 59°21' E 018°08'2 3.6
2017-Jun-27 04:30N 59°19' E 018°09'3 5.0
2017-Jun-27 04:00N 59°20' E 018°05'0 0.5
2017-Jun-27 03:30N 59°20' E 018°05'0 0.0
2017-Jun-27 03:00N 59°20' E 018°05'0 0.0
2017-Jun-27 02:30N 59°20' E 018°05'0 0.0
2017-Jun-27 02:00N 59°20' E 018°05'0 0.0
2017-Jun-27 01:30N 59°20' E 018°05'0 0.0
2017-Jun-27 01:00N 59°20' E 018°05'0 0.0
2017-Jun-27 00:30N 59°20' E 018°05'0 0.0
2017-Jun-27 00:00N 59°20' E 018°05'0 0.0
2017-Jun-26 23:30N 59°20' E 018°05'0 0.0
2017-Jun-26 23:00N 59°20' E 018°05'0 0.0
2017-Jun-26 22:30N 59°20' E 018°05'0 0.0
2017-Jun-26 22:00N 59°20' E 018°05'0 0.0
2017-Jun-26 21:30N 59°20' E 018°05'0 0.0
2017-Jun-26 21:00N 59°20' E 018°05'0 0.0
2017-Jun-26 20:30N 59°20' E 018°05'0 0.0
2017-Jun-26 20:00N 59°20' E 018°05'0 0.0
2017-Jun-26 19:30N 59°20' E 018°05'0 0.0
2017-Jun-26 19:00N 59°20' E 018°05'2 3.3
2017-Jun-26 18:30N 59°19' E 018°08'1 1.1
2017-Jun-26 18:00N 59°19' E 018°07'1 1.2
2017-Jun-26 17:30N 59°19' E 018°06'1 3.0
2017-Jun-26 17:00N 59°19' E 018°09'2 4.2
2017-Jun-26 16:29N 59°20' E 018°05'2 3.6
2017-Jun-26 16:00N 59°19' E 018°07'2 3.6
2017-Jun-26 15:30N 59°21' E 018°09'1 3.0
2017-Jun-26 15:00N 59°19' E 018°09'2 4.3
2017-Jun-26 14:30N 59°20' E 018°05'0 0.0
2017-Jun-26 13:31N 59°20' E 018°05'2 4.6
2017-Jun-26 12:59N 59°19' E 018°09'1 2.8
2017-Jun-26 12:30N 59°21' E 018°09'2 3.6
2017-Jun-26 12:00N 59°19' E 018°07'2 3.5
2017-Jun-26 11:30N 59°20' E 018°05'0 0.6
2017-Jun-26 11:00N 59°20' E 018°05'1 1.1
2017-Jun-26 10:30N 59°19' E 018°06'0 0.1
2017-Jun-26 10:00N 59°19' E 018°06'2 3.9
2017-Jun-26 09:30N 59°20' E 018°09'0 0.4
2017-Jun-26 09:00N 59°20' E 018°10'2 4.1
2017-Jun-26 08:30N 59°19' E 018°06'1 1.7
2017-Jun-26 07:59N 59°20' E 018°05'1 3.0
2017-Jun-26 07:30N 59°19' E 018°07'2 3.9
2017-Jun-26 07:00N 59°20' E 018°09'1 2.2
2017-Jun-26 06:30N 59°19' E 018°09'2 3.9
2017-Jun-26 06:00N 59°20' E 018°05'1 2.5
2017-Jun-26 05:30N 59°19' E 018°08'2 3.3
2017-Jun-26 05:00N 59°21' E 018°08'2 3.5
2017-Jun-26 04:30N 59°19' E 018°09'2 5.0
2017-Jun-26 04:00N 59°20' E 018°05'0 0.5
2017-Jun-26 03:30N 59°20' E 018°05'0 0.0
2017-Jun-26 03:00N 59°20' E 018°05'0 0.0
2017-Jun-26 02:30N 59°20' E 018°05'0 0.0
2017-Jun-26 02:00N 59°20' E 018°05'0 0.0
2017-Jun-26 01:30N 59°20' E 018°05'0 0.0
2017-Jun-26 01:00N 59°20' E 018°05'0 0.0
2017-Jun-26 00:30N 59°20' E 018°05'0 0.0
2017-Jun-26 00:00N 59°20' E 018°05'0 0.0
2017-Jun-25 23:30N 59°20' E 018°05'0 0.0
2017-Jun-25 23:00N 59°20' E 018°05'0 0.0
2017-Jun-25 22:30N 59°20' E 018°05'0 0.0
2017-Jun-25 22:00N 59°20' E 018°05'0 0.0
2017-Jun-25 21:30N 59°20' E 018°05'0 0.0
2017-Jun-25 21:00N 59°20' E 018°05'0 0.0
2017-Jun-25 20:28N 59°20' E 018°05'0 0.0
2017-Jun-25 20:00N 59°20' E 018°05'0 0.0
2017-Jun-25 19:30N 59°20' E 018°05'0 0.0
2017-Jun-25 18:57N 59°20' E 018°05'0 0.0
2017-Jun-25 18:22N 59°20' E 018°05'0 0.0
2017-Jun-25 17:58N 59°20' E 018°05'0 0.0
2017-Jun-25 17:12N 59°20' E 018°05'0 0.0
2017-Jun-25 16:57N 59°20' E 018°05'0 0.0
2017-Jun-25 16:28N 59°20' E 018°05'1 2.7
2017-Jun-25 15:58N 59°19' E 018°07'2 3.6
2017-Jun-25 15:29N 59°21' E 018°09'2 3.3
2017-Jun-25 15:00N 59°19' E 018°08'1 0.6
2017-Jun-25 14:01N 59°19' E 018°07'2 3.4
2017-Jun-25 13:29N 59°21' E 018°09'2 3.4
2017-Jun-25 13:00N 59°19' E 018°08'2 4.0
2017-Jun-25 12:30N 59°20' E 018°05'2 4.0
2017-Jun-25 12:00N 59°19' E 018°08'2 3.8
2017-Jun-25 11:29N 59°20' E 018°05'0 0.0
2017-Jun-25 10:59N 59°20' E 018°05'2 3.3
2017-Jun-25 10:30N 59°19' E 018°07'2 3.3
2017-Jun-25 10:00N 59°20' E 018°09'2 3.4
2017-Jun-25 09:30N 59°19' E 018°07'1 2.0
2017-Jun-25 09:00N 59°19' E 018°06'2 3.6
2017-Jun-25 08:30N 59°19' E 018°09'2 3.5
2017-Jun-25 08:00N 59°19' E 018°06'1 1.3
2017-Jun-25 07:28N 59°20' E 018°05'0 0.0
2017-Jun-25 06:58N 59°20' E 018°05'0 0.0
2017-Jun-25 06:13N 59°20' E 018°05'0 0.0
2017-Jun-25 05:55N 59°20' E 018°05'0 0.0
2017-Jun-25 05:25N 59°20' E 018°05'0 0.0
2017-Jun-25 04:55N 59°20' E 018°05'0 0.0
2017-Jun-25 04:25N 59°20' E 018°05'0 0.0
2017-Jun-25 03:55N 59°20' E 018°05'0 0.0
2017-Jun-25 03:25N 59°20' E 018°05'0 0.0
2017-Jun-25 02:50N 59°20' E 018°05'0 0.0
2017-Jun-25 02:29N 59°20' E 018°05'0 0.0
2017-Jun-25 01:59N 59°20' E 018°05'0 0.0
2017-Jun-25 01:29N 59°20' E 018°05'0 0.0
2017-Jun-25 00:59N 59°20' E 018°05'0 0.0
2017-Jun-25 00:29N 59°20' E 018°05'0 0.0
2017-Jun-24 23:59N 59°20' E 018°05'0 0.0
2017-Jun-24 23:29N 59°20' E 018°05'0 0.0
2017-Jun-24 22:59N 59°20' E 018°05'0 0.0
2017-Jun-24 22:29N 59°20' E 018°05'0 0.0
2017-Jun-24 21:59N 59°20' E 018°05'0 0.0
2017-Jun-24 21:29N 59°20' E 018°05'0 0.0
2017-Jun-24 20:59N 59°20' E 018°05'0 0.0
2017-Jun-24 20:29N 59°20' E 018°05'0 0.0
2017-Jun-24 19:59N 59°20' E 018°05'0 0.0
2017-Jun-24 19:29N 59°20' E 018°05'0 0.0
2017-Jun-24 18:59N 59°20' E 018°05'0 0.0
2017-Jun-24 18:29N 59°20' E 018°05'0 0.0
2017-Jun-24 17:56N 59°20' E 018°05'0 0.0
2017-Jun-24 17:29N 59°20' E 018°05'0 0.0
2017-Jun-24 16:59N 59°20' E 018°05'0 0.0
2017-Jun-24 16:29N 59°20' E 018°05'1 1.9
2017-Jun-24 16:00N 59°19' E 018°06'2 4.0
2017-Jun-24 15:29N 59°21' E 018°09'2 3.2
2017-Jun-24 15:01N 59°19' E 018°08'1 0.7
2017-Jun-24 14:00N 59°19' E 018°07'2 3.6
2017-Jun-24 13:30N 59°21' E 018°09'1 3.0
2017-Jun-24 13:00N 59°19' E 018°08'2 4.1
2017-Jun-24 12:31N 59°20' E 018°05'2 3.8
2017-Jun-24 11:59N 59°19' E 018°08'2 3.9
2017-Jun-24 11:28N 59°20' E 018°05'0 0.0
2017-Jun-24 10:50N 59°20' E 018°05'1 3.4
2017-Jun-24 10:30N 59°19' E 018°06'2 3.9
2017-Jun-24 09:59N 59°21' E 018°09'2 3.7
2017-Jun-24 09:30N 59°19' E 018°07'1 2.5
2017-Jun-24 08:59N 59°20' E 018°05'2 4.0
2017-Jun-24 08:29N 59°19' E 018°09'2 3.7
2017-Jun-24 08:00N 59°19' E 018°06'1 1.2
2017-Jun-24 07:28N 59°20' E 018°05'0 0.0
2017-Jun-24 06:58N 59°20' E 018°05'0 0.0
2017-Jun-24 06:28N 59°20' E 018°05'0 0.0
2017-Jun-24 05:52N 59°20' E 018°05'0 0.0
2017-Jun-24 05:16N 59°20' E 018°05'0 0.0
2017-Jun-24 04:58N 59°20' E 018°05'0 0.0
2017-Jun-24 04:28N 59°20' E 018°05'0 0.0
2017-Jun-24 03:58N 59°20' E 018°05'0 0.0
2017-Jun-24 03:28N 59°20' E 018°05'0 0.0
2017-Jun-24 02:58N 59°20' E 018°05'0 0.0
2017-Jun-24 02:28N 59°20' E 018°05'0 0.0
2017-Jun-24 01:58N 59°20' E 018°05'0 0.0
2017-Jun-24 01:28N 59°20' E 018°05'0 0.0
2017-Jun-24 00:58N 59°20' E 018°05'0 0.0
2017-Jun-24 00:22N 59°20' E 018°05'0 0.0
2017-Jun-23 23:58N 59°20' E 018°05'0 0.0
2017-Jun-23 23:28N 59°20' E 018°05'0 0.0
2017-Jun-23 22:58N 59°20' E 018°05'0 0.0
2017-Jun-23 22:28N 59°20' E 018°05'0 0.0
2017-Jun-23 21:58N 59°20' E 018°05'0 0.0
2017-Jun-23 21:22N 59°20' E 018°05'0 0.0
2017-Jun-23 20:58N 59°20' E 018°05'0 0.0
2017-Jun-23 20:28N 59°20' E 018°05'0 0.0
2017-Jun-23 19:58N 59°20' E 018°05'0 0.0
2017-Jun-23 19:22N 59°20' E 018°05'0 0.0
2017-Jun-23 18:58N 59°20' E 018°05'0 0.0
2017-Jun-23 18:28N 59°20' E 018°05'0 0.0
2017-Jun-23 17:58N 59°20' E 018°05'0 0.0
2017-Jun-23 17:28N 59°20' E 018°05'0 0.0
2017-Jun-23 16:52N 59°20' E 018°05'0 0.0
2017-Jun-23 16:28N 59°20' E 018°05'1 2.0
2017-Jun-23 16:00N 59°19' E 018°06'2 3.9
2017-Jun-23 15:28N 59°21' E 018°09'2 3.3
2017-Jun-23 15:00N 59°19' E 018°08'0 0.4
2017-Jun-23 13:59N 59°19' E 018°07'2 3.1
2017-Jun-23 13:28N 59°21' E 018°09'2 3.4
2017-Jun-23 13:00N 59°19' E 018°08'2 4.0
2017-Jun-23 12:30N 59°20' E 018°05'2 4.0
2017-Jun-23 11:59N 59°19' E 018°08'2 4.1
2017-Jun-23 11:31N 59°20' E 018°05'0 0.0
2017-Jun-23 10:55N 59°20' E 018°05'1 3.4
2017-Jun-23 10:30N 59°19' E 018°07'2 3.8
2017-Jun-23 10:00N 59°21' E 018°09'2 3.3
2017-Jun-23 09:30N 59°19' E 018°08'2 3.2
2017-Jun-23 09:00N 59°20' E 018°05'2 4.5
2017-Jun-23 08:30N 59°19' E 018°09'2 3.5
2017-Jun-23 08:00N 59°19' E 018°06'1 1.4
2017-Jun-23 07:28N 59°20' E 018°05'0 0.0
2017-Jun-23 06:58N 59°20' E 018°05'0 0.0
2017-Jun-23 06:22N 59°20' E 018°05'0 0.0
2017-Jun-23 05:58N 59°20' E 018°05'0 0.0
2017-Jun-23 05:28N 59°20' E 018°05'0 0.0
2017-Jun-23 04:58N 59°20' E 018°05'0 0.0
2017-Jun-23 04:28N 59°20' E 018°05'0 0.0
2017-Jun-23 03:58N 59°20' E 018°05'0 0.0
2017-Jun-23 03:28N 59°20' E 018°05'0 0.0
2017-Jun-23 02:58N 59°20' E 018°05'0 0.0
2017-Jun-23 02:28N 59°20' E 018°05'0 0.0
2017-Jun-23 01:58N 59°20' E 018°05'0 0.0
2017-Jun-23 01:28N 59°20' E 018°05'0 0.0
2017-Jun-23 00:58N 59°20' E 018°05'0 0.0
2017-Jun-23 00:28N 59°20' E 018°05'0 0.0
2017-Jun-22 23:58N 59°20' E 018°05'0 0.0
2017-Jun-22 23:28N 59°20' E 018°05'0 0.0
2017-Jun-22 22:58N 59°20' E 018°05'0 0.0
2017-Jun-22 22:28N 59°20' E 018°05'0 0.0
2017-Jun-22 21:58N 59°20' E 018°05'0 0.0
2017-Jun-22 21:28N 59°20' E 018°05'0 0.0
2017-Jun-22 20:58N 59°20' E 018°05'0 0.0
2017-Jun-22 20:22N 59°20' E 018°05'0 0.0
2017-Jun-22 19:58N 59°20' E 018°05'0 0.0
2017-Jun-22 19:30N 59°20' E 018°05'2 3.9
2017-Jun-22 19:00N 59°19' E 018°08'1 2.8
2017-Jun-22 18:29N 59°19' E 018°06'0 0.0
2017-Jun-22 18:00N 59°19' E 018°06'1 2.8
2017-Jun-22 17:30N 59°19' E 018°08'2 3.7
2017-Jun-22 16:56N 59°20' E 018°05'2 4.0
2017-Jun-22 16:30N 59°19' E 018°07'2 3.5
2017-Jun-22 16:00N 59°21' E 018°08'2 3.1
2017-Jun-22 15:29N 59°19' E 018°08'2 3.9
2017-Jun-22 14:58N 59°20' E 018°05'2 3.8
2017-Jun-22 14:30N 59°19' E 018°07'1 0.7
2017-Jun-22 13:30N 59°19' E 018°09'2 4.2
2017-Jun-22 12:58N 59°20' E 018°05'0 0.5
2017-Jun-22 12:30N 59°20' E 018°05'0 0.0
2017-Jun-22 11:54N 59°20' E 018°05'0 0.0
2017-Jun-22 11:29N 59°20' E 018°05'1 2.9
2017-Jun-22 11:01N 59°19' E 018°07'0 0.3
2017-Jun-22 10:31N 59°19' E 018°07'1 1.9
2017-Jun-22 10:00N 59°19' E 018°06'2 3.6
2017-Jun-22 09:29N 59°19' E 018°09'1 2.9
2017-Jun-22 09:00N 59°21' E 018°09'2 3.4
2017-Jun-22 08:29N 59°19' E 018°07'2 3.1
2017-Jun-22 07:58N 59°20' E 018°05'2 3.9
2017-Jun-22 07:27N 59°19' E 018°08'2 3.6
2017-Jun-22 06:59N 59°21' E 018°08'2 3.5
2017-Jun-22 06:30N 59°19' E 018°09'3 5.1
2017-Jun-22 06:00N 59°20' E 018°05'3 4.9
2017-Jun-22 05:29N 59°19' E 018°09'1 3.0
2017-Jun-22 05:00N 59°21' E 018°09'2 3.6
2017-Jun-22 04:30N 59°19' E 018°07'2 2.7
2017-Jun-22 03:56N 59°20' E 018°05'0 0.0
2017-Jun-22 03:20N 59°20' E 018°05'0 0.0
2017-Jun-22 02:56N 59°20' E 018°05'0 0.0
2017-Jun-22 02:26N 59°20' E 018°05'0 0.0
2017-Jun-22 01:56N 59°20' E 018°05'0 0.0
2017-Jun-22 01:26N 59°20' E 018°05'0 0.0
2017-Jun-22 00:59N 59°20' E 018°05'0 0.0
2017-Jun-22 00:26N 59°20' E 018°05'0 0.0
2017-Jun-21 23:59N 59°20' E 018°05'0 0.0
2017-Jun-21 23:29N 59°20' E 018°05'0 0.0
2017-Jun-21 22:56N 59°20' E 018°05'0 0.0
2017-Jun-21 22:29N 59°20' E 018°05'0 0.0
2017-Jun-21 21:59N 59°20' E 018°05'0 0.0
2017-Jun-21 21:29N 59°20' E 018°05'0 0.0
2017-Jun-21 20:59N 59°20' E 018°05'0 0.0
2017-Jun-21 20:29N 59°20' E 018°05'0 0.0
2017-Jun-21 19:56N 59°20' E 018°05'0 0.2
2017-Jun-21 19:30N 59°20' E 018°05'2 3.8
2017-Jun-21 18:59N 59°19' E 018°08'1 3.0
2017-Jun-21 18:30N 59°19' E 018°06'0 0.3
2017-Jun-21 18:01N 59°19' E 018°06'1 2.7
2017-Jun-21 17:30N 59°19' E 018°08'2 3.7
2017-Jun-21 16:56N 59°20' E 018°05'2 4.0
2017-Jun-21 16:30N 59°19' E 018°07'2 3.4
2017-Jun-21 16:00N 59°21' E 018°08'2 3.1
2017-Jun-21 15:30N 59°19' E 018°09'2 4.2
2017-Jun-21 15:00N 59°20' E 018°05'2 3.4
2017-Jun-21 14:29N 59°19' E 018°07'0 0.4
2017-Jun-21 13:30N 59°19' E 018°08'2 3.5
2017-Jun-21 12:55N 59°20' E 018°05'0 0.5
2017-Jun-21 12:27N 59°20' E 018°05'0 0.0
2017-Jun-21 11:57N 59°20' E 018°05'0 0.0
2017-Jun-21 11:29N 59°20' E 018°05'2 3.2
2017-Jun-21 11:00N 59°19' E 018°07'0 0.1
2017-Jun-21 10:30N 59°19' E 018°07'1 2.3
2017-Jun-21 10:00N 59°20' E 018°05'2 3.6
2017-Jun-21 09:29N 59°19' E 018°09'1 2.8
2017-Jun-21 09:00N 59°21' E 018°09'2 3.5
2017-Jun-21 08:30N 59°19' E 018°07'2 3.3
2017-Jun-21 08:00N 59°20' E 018°05'2 3.2
2017-Jun-21 07:28N 59°19' E 018°07'2 3.7
2017-Jun-21 07:00N 59°21' E 018°09'2 3.1
2017-Jun-21 06:29N 59°19' E 018°10'3 5.2
2017-Jun-21 05:58N 59°20' E 018°05'2 4.7
2017-Jun-21 05:30N 59°19' E 018°09'1 3.0
2017-Jun-21 05:00N 59°21' E 018°09'2 3.3
2017-Jun-21 04:30N 59°19' E 018°08'2 3.0
2017-Jun-21 03:56N 59°20' E 018°05'0 0.0
2017-Jun-21 03:26N 59°20' E 018°05'0 0.0
2017-Jun-21 02:56N 59°20' E 018°05'0 0.0
2017-Jun-21 02:29N 59°20' E 018°05'0 0.0
2017-Jun-21 01:56N 59°20' E 018°05'0 0.0
2017-Jun-21 01:29N 59°20' E 018°05'0 0.0
2017-Jun-21 00:59N 59°20' E 018°05'0 0.0
2017-Jun-21 00:29N 59°20' E 018°05'0 0.0
2017-Jun-20 23:59N 59°20' E 018°05'0 0.0
2017-Jun-20 23:29N 59°20' E 018°05'0 0.0
2017-Jun-20 22:59N 59°20' E 018°05'0 0.0
2017-Jun-20 22:29N 59°20' E 018°05'0 0.0
2017-Jun-20 21:59N 59°20' E 018°05'0 0.0
2017-Jun-20 21:29N 59°20' E 018°05'0 0.0
2017-Jun-20 20:59N 59°20' E 018°05'0 0.0
2017-Jun-20 20:29N 59°20' E 018°05'0 0.0
2017-Jun-20 19:59N 59°20' E 018°05'0 0.2
2017-Jun-20 19:30N 59°20' E 018°05'2 3.7
2017-Jun-20 19:00N 59°19' E 018°08'1 2.6
2017-Jun-20 18:30N 59°19' E 018°06'0 0.2
2017-Jun-20 17:59N 59°19' E 018°06'2 3.5
2017-Jun-20 17:30N 59°19' E 018°09'2 4.7
2017-Jun-20 17:00N 59°20' E 018°05'2 3.6
2017-Jun-20 16:30N 59°19' E 018°08'2 3.3
2017-Jun-20 16:00N 59°21' E 018°08'2 3.3
2017-Jun-20 15:30N 59°19' E 018°09'2 4.7
2017-Jun-20 15:00N 59°20' E 018°05'2 2.2
2017-Jun-20 14:00N 59°21' E 018°09'2 3.0
2017-Jun-20 13:30N 59°19' E 018°09'2 4.4
2017-Jun-20 13:00N 59°20' E 018°05'0 0.5
2017-Jun-20 12:28N 59°20' E 018°05'0 0.0
2017-Jun-20 11:58N 59°20' E 018°05'0 0.5
2017-Jun-20 11:30N 59°20' E 018°05'2 4.1
2017-Jun-20 11:00N 59°19' E 018°08'1 1.7
2017-Jun-20 10:30N 59°19' E 018°07'1 1.4
2017-Jun-20 10:01N 59°19' E 018°06'2 3.6
2017-Jun-20 09:30N 59°19' E 018°09'1 2.7
2017-Jun-20 09:00N 59°21' E 018°09'2 3.5
2017-Jun-20 08:30N 59°19' E 018°07'2 3.5
2017-Jun-20 08:00N 59°20' E 018°05'2 3.5
2017-Jun-20 07:30N 59°19' E 018°08'2 3.4
2017-Jun-20 06:59N 59°21' E 018°08'2 3.6
2017-Jun-20 06:30N 59°19' E 018°09'3 4.9
2017-Jun-20 05:58N 59°20' E 018°05'2 4.6
2017-Jun-20 05:30N 59°19' E 018°09'2 3.0
2017-Jun-20 05:00N 59°21' E 018°09'2 3.4
2017-Jun-20 04:30N 59°19' E 018°08'2 2.8
2017-Jun-20 03:57N 59°20' E 018°05'0 0.0
2017-Jun-20 03:30N 59°20' E 018°05'0 0.0
2017-Jun-20 03:00N 59°20' E 018°05'0 0.0
2017-Jun-20 02:30N 59°20' E 018°05'0 0.0
2017-Jun-20 02:00N 59°20' E 018°05'0 0.0
2017-Jun-20 01:30N 59°20' E 018°05'0 0.0
2017-Jun-20 01:00N 59°20' E 018°05'0 0.0
2017-Jun-20 00:30N 59°20' E 018°05'0 0.0
2017-Jun-20 00:00N 59°20' E 018°05'0 0.0
2017-Jun-19 23:30N 59°20' E 018°05'0 0.0
2017-Jun-19 23:00N 59°20' E 018°05'0 0.0
2017-Jun-19 22:30N 59°20' E 018°05'0 0.0
2017-Jun-19 22:00N 59°20' E 018°05'0 0.0
2017-Jun-19 21:30N 59°20' E 018°05'0 0.0
2017-Jun-19 21:00N 59°20' E 018°05'0 0.0
2017-Jun-19 20:30N 59°20' E 018°05'0 0.0
2017-Jun-19 20:00N 59°20' E 018°05'0 0.4
2017-Jun-19 19:30N 59°20' E 018°05'2 4.0
2017-Jun-19 19:00N 59°19' E 018°08'1 2.8
2017-Jun-19 18:30N 59°19' E 018°06'1 1.5
2017-Jun-19 18:00N 59°19' E 018°07'1 1.8
2017-Jun-19 17:30N 59°19' E 018°08'2 4.0
2017-Jun-19 17:00N 59°20' E 018°05'2 4.1
2017-Jun-19 16:30N 59°19' E 018°08'2 3.4
2017-Jun-19 16:00N 59°21' E 018°08'2 3.4
2017-Jun-19 15:30N 59°19' E 018°08'2 3.8
2017-Jun-19 14:59N 59°20' E 018°05'2 2.4
2017-Jun-19 14:00N 59°21' E 018°09'2 3.0
2017-Jun-19 13:30N 59°19' E 018°08'2 4.0
2017-Jun-19 12:59N 59°20' E 018°05'0 0.5
2017-Jun-19 12:28N 59°20' E 018°05'0 0.0
2017-Jun-19 11:58N 59°20' E 018°05'0 0.0
2017-Jun-19 11:28N 59°20' E 018°05'1 2.7
2017-Jun-19 11:00N 59°19' E 018°07'0 0.7
2017-Jun-19 10:30N 59°19' E 018°07'1 2.4
2017-Jun-19 10:00N 59°20' E 018°05'2 3.9
2017-Jun-19 09:30N 59°19' E 018°09'1 2.8
2017-Jun-19 09:00N 59°21' E 018°09'2 3.6
2017-Jun-19 08:30N 59°19' E 018°07'2 3.4
2017-Jun-19 07:59N 59°20' E 018°05'2 3.6
2017-Jun-19 07:30N 59°19' E 018°07'2 3.6
2017-Jun-19 07:00N 59°21' E 018°08'2 3.4
2017-Jun-19 06:30N 59°19' E 018°09'3 4.9
2017-Jun-19 06:00N 59°20' E 018°05'2 4.6
2017-Jun-19 05:31N 59°19' E 018°09'1 3.0
2017-Jun-19 05:01N 59°21' E 018°09'2 3.1
2017-Jun-19 04:30N 59°19' E 018°08'2 3.7
2017-Jun-19 04:01N 59°20' E 018°05'0 0.0
2017-Jun-19 03:30N 59°20' E 018°05'0 0.0
2017-Jun-19 03:01N 59°20' E 018°05'0 0.0
2017-Jun-19 02:31N 59°20' E 018°05'0 0.0
2017-Jun-19 02:01N 59°20' E 018°05'0 0.0
2017-Jun-19 01:31N 59°20' E 018°05'0 0.0
2017-Jun-19 01:01N 59°20' E 018°05'0 0.0
2017-Jun-19 00:28N 59°20' E 018°05'0 0.0
2017-Jun-19 00:01N 59°20' E 018°05'0 0.0
2017-Jun-18 23:31N 59°20' E 018°05'0 0.0
2017-Jun-18 23:01N 59°20' E 018°05'0 0.0
2017-Jun-18 22:31N 59°20' E 018°05'0 0.0
2017-Jun-18 22:01N 59°20' E 018°05'0 0.0
2017-Jun-18 21:31N 59°20' E 018°05'0 0.0
2017-Jun-18 20:58N 59°20' E 018°05'0 0.0
2017-Jun-18 20:31N 59°20' E 018°05'0 0.0
2017-Jun-18 20:01N 59°20' E 018°05'0 0.0
2017-Jun-18 19:31N 59°20' E 018°05'0 0.0
2017-Jun-18 18:58N 59°20' E 018°05'0 0.0
2017-Jun-18 18:28N 59°20' E 018°05'0 0.0
2017-Jun-18 17:58N 59°20' E 018°05'0 0.0
2017-Jun-18 17:28N 59°20' E 018°05'0 0.0
2017-Jun-18 16:58N 59°20' E 018°05'0 0.0
2017-Jun-18 16:28N 59°20' E 018°05'0 0.0
2017-Jun-18 15:58N 59°20' E 018°05'0 0.0
2017-Jun-18 15:28N 59°20' E 018°05'1 3.0
2017-Jun-18 15:00N 59°19' E 018°07'1 0.5
2017-Jun-18 14:00N 59°19' E 018°08'2 4.1
2017-Jun-18 13:30N 59°20' E 018°05'2 4.0
2017-Jun-18 13:00N 59°19' E 018°08'2 3.7
2017-Jun-18 12:28N 59°20' E 018°05'2 3.8
2017-Jun-18 12:00N 59°19' E 018°07'2 3.5
2017-Jun-18 11:29N 59°21' E 018°09'2 3.5
2017-Jun-18 10:58N 59°19' E 018°07'2 3.2
2017-Jun-18 10:30N 59°20' E 018°05'0 0.1
2017-Jun-18 10:00N 59°20' E 018°05'2 2.9
2017-Jun-18 09:28N 59°19' E 018°08'1 2.8
2017-Jun-18 09:00N 59°20' E 018°05'1 2.2
2017-Jun-18 08:30N 59°19' E 018°07'2 3.2
2017-Jun-18 07:57N 59°21' E 018°09'2 3.5
2017-Jun-18 07:30N 59°19' E 018°08'2 4.1
2017-Jun-18 07:00N 59°20' E 018°05'0 0.4
2017-Jun-18 06:24N 59°20' E 018°05'0 0.0
2017-Jun-18 06:01N 59°20' E 018°05'0 0.0
2017-Jun-18 05:24N 59°20' E 018°05'0 0.0
2017-Jun-18 04:55N 59°20' E 018°05'0 0.0
2017-Jun-18 04:31N 59°20' E 018°05'0 0.0
2017-Jun-18 04:00N 59°20' E 018°05'0 0.0
2017-Jun-18 03:30N 59°20' E 018°05'0 0.0
2017-Jun-18 03:01N 59°20' E 018°05'0 0.0
2017-Jun-18 02:27N 59°20' E 018°05'0 0.0
2017-Jun-18 02:00N 59°20' E 018°05'0 0.0
2017-Jun-18 01:31N 59°20' E 018°05'0 0.0
2017-Jun-18 00:57N 59°20' E 018°05'0 0.0
2017-Jun-18 00:30N 59°20' E 018°05'0 0.0
2017-Jun-17 23:55N 59°20' E 018°05'0 0.0
2017-Jun-17 23:30N 59°20' E 018°05'0 0.0
2017-Jun-17 23:01N 59°20' E 018°05'0 0.0
2017-Jun-17 22:31N 59°20' E 018°05'0 0.0
2017-Jun-17 22:01N 59°20' E 018°05'0 0.0
2017-Jun-17 21:27N 59°20' E 018°05'0 0.0
2017-Jun-17 20:57N 59°20' E 018°05'0 0.0
2017-Jun-17 20:25N 59°20' E 018°05'0 0.0
2017-Jun-17 19:55N 59°20' E 018°05'0 0.0
2017-Jun-17 19:27N 59°20' E 018°05'0 0.0
2017-Jun-17 18:59N 59°20' E 018°05'0 0.0
2017-Jun-17 18:27N 59°20' E 018°05'0 0.0
2017-Jun-17 17:57N 59°20' E 018°05'0 0.0
2017-Jun-17 17:27N 59°20' E 018°05'0 0.0
2017-Jun-17 16:57N 59°20' E 018°05'0 0.0
2017-Jun-17 16:27N 59°20' E 018°05'0 0.0
2017-Jun-17 15:57N 59°20' E 018°05'0 0.0
2017-Jun-17 15:27N 59°20' E 018°05'1 3.2
2017-Jun-17 15:00N 59°19' E 018°07'0 0.4
2017-Jun-17 14:00N 59°19' E 018°08'2 3.9
2017-Jun-17 13:29N 59°20' E 018°05'2 4.2
2017-Jun-17 13:00N 59°19' E 018°08'2 4.1
2017-Jun-17 12:30N 59°20' E 018°05'  

Dump ship's entire track history